sensor_id;sensor_type;location;lat;lon;timestamp;P1;durP1;ratioP1;P2;durP2;ratioP2
78027;SDS011;67235;45.638;11.714;2023-03-11T00:00:35;22.67;;;12.20;;
78027;SDS011;67235;45.638;11.714;2023-03-11T00:03:03;18.88;;;11.68;;
78027;SDS011;67235;45.638;11.714;2023-03-11T00:05:34;22.90;;;11.97;;
78027;SDS011;67235;45.638;11.714;2023-03-11T00:08:04;23.15;;;12.35;;
78027;SDS011;67235;45.638;11.714;2023-03-11T00:10:39;22.75;;;12.15;;
78027;SDS011;67235;45.638;11.714;2023-03-11T00:13:07;24.33;;;12.32;;
78027;SDS011;67235;45.638;11.714;2023-03-11T00:15:35;23.42;;;12.43;;
78027;SDS011;67235;45.638;11.714;2023-03-11T00:18:02;22.43;;;12.23;;
78027;SDS011;67235;45.638;11.714;2023-03-11T00:20:31;22.48;;;12.32;;
78027;SDS011;67235;45.638;11.714;2023-03-11T00:22:59;22.25;;;13.27;;
78027;SDS011;67235;45.638;11.714;2023-03-11T00:25:27;21.23;;;12.02;;
78027;SDS011;67235;45.638;11.714;2023-03-11T00:27:54;20.63;;;12.60;;
78027;SDS011;67235;45.638;11.714;2023-03-11T00:30:21;23.70;;;15.57;;
78027;SDS011;67235;45.638;11.714;2023-03-11T00:32:48;28.90;;;13.20;;
78027;SDS011;67235;45.638;11.714;2023-03-11T00:35:18;17.67;;;10.43;;
78027;SDS011;67235;45.638;11.714;2023-03-11T00:37:47;20.65;;;11.68;;
78027;SDS011;67235;45.638;11.714;2023-03-11T00:40:18;23.55;;;13.50;;
78027;SDS011;67235;45.638;11.714;2023-03-11T00:42:45;24.57;;;14.07;;
78027;SDS011;67235;45.638;11.714;2023-03-11T00:45:11;24.70;;;14.82;;
78027;SDS011;67235;45.638;11.714;2023-03-11T00:47:38;27.05;;;14.45;;
78027;SDS011;67235;45.638;11.714;2023-03-11T00:50:05;25.55;;;15.65;;
78027;SDS011;67235;45.638;11.714;2023-03-11T00:52:33;32.70;;;17.52;;
78027;SDS011;67235;45.638;11.714;2023-03-11T00:54:59;31.10;;;18.43;;
78027;SDS011;67235;45.638;11.714;2023-03-11T00:57:25;30.48;;;18.38;;
78027;SDS011;67235;45.638;11.714;2023-03-11T00:59:53;36.65;;;19.00;;
78027;SDS011;67235;45.638;11.714;2023-03-11T01:02:19;33.92;;;19.38;;
78027;SDS011;67235;45.638;11.714;2023-03-11T01:04:46;33.42;;;20.48;;
78027;SDS011;67235;45.638;11.714;2023-03-11T01:07:12;35.83;;;18.33;;
78027;SDS011;67235;45.638;11.714;2023-03-11T01:09:38;33.20;;;18.30;;
78027;SDS011;67235;45.638;11.714;2023-03-11T01:12:03;30.45;;;17.23;;
78027;SDS011;67235;45.638;11.714;2023-03-11T01:14:29;32.75;;;17.58;;
78027;SDS011;67235;45.638;11.714;2023-03-11T01:16:55;35.67;;;19.55;;
78027;SDS011;67235;45.638;11.714;2023-03-11T01:19:21;35.37;;;20.83;;
78027;SDS011;67235;45.638;11.714;2023-03-11T01:21:47;35.58;;;19.75;;
78027;SDS011;67235;45.638;11.714;2023-03-11T01:24:13;36.92;;;20.95;;
78027;SDS011;67235;45.638;11.714;2023-03-11T01:26:39;31.30;;;18.10;;
78027;SDS011;67235;45.638;11.714;2023-03-11T01:29:05;31.90;;;17.95;;
78027;SDS011;67235;45.638;11.714;2023-03-11T01:31:31;32.53;;;18.08;;
78027;SDS011;67235;45.638;11.714;2023-03-11T01:33:56;38.47;;;20.00;;
78027;SDS011;67235;45.638;11.714;2023-03-11T01:36:22;34.88;;;19.50;;
78027;SDS011;67235;45.638;11.714;2023-03-11T01:38:48;22.20;;;15.20;;
78027;SDS011;67235;45.638;11.714;2023-03-11T01:41:14;29.77;;;17.08;;
78027;SDS011;67235;45.638;11.714;2023-03-11T01:49:00;32.17;;;19.23;;
78027;SDS011;67235;45.638;11.714;2023-03-11T01:51:29;34.28;;;19.60;;
78027;SDS011;67235;45.638;11.714;2023-03-11T01:54:24;33.83;;;19.42;;
78027;SDS011;67235;45.638;11.714;2023-03-11T01:56:50;27.67;;;15.73;;
78027;SDS011;67235;45.638;11.714;2023-03-11T01:59:18;30.00;;;18.45;;
78027;SDS011;67235;45.638;11.714;2023-03-11T02:01:52;28.95;;;18.23;;
78027;SDS011;67235;45.638;11.714;2023-03-11T02:04:26;36.30;;;20.40;;
78027;SDS011;67235;45.638;11.714;2023-03-11T02:06:54;30.88;;;18.17;;
78027;SDS011;67235;45.638;11.714;2023-03-11T02:09:21;30.80;;;17.87;;
78027;SDS011;67235;45.638;11.714;2023-03-11T02:11:48;31.45;;;17.90;;
78027;SDS011;67235;45.638;11.714;2023-03-11T02:14:15;35.88;;;19.70;;
78027;SDS011;67235;45.638;11.714;2023-03-11T02:16:41;32.55;;;19.25;;
78027;SDS011;67235;45.638;11.714;2023-03-11T02:19:11;33.70;;;19.83;;
78027;SDS011;67235;45.638;11.714;2023-03-11T02:21:56;28.00;;;17.92;;
78027;SDS011;67235;45.638;11.714;2023-03-11T02:24:25;32.35;;;19.92;;
78027;SDS011;67235;45.638;11.714;2023-03-11T02:27:07;38.85;;;23.10;;
78027;SDS011;67235;45.638;11.714;2023-03-11T02:29:35;28.25;;;18.25;;
78027;SDS011;67235;45.638;11.714;2023-03-11T02:32:03;28.17;;;17.40;;
78027;SDS011;67235;45.638;11.714;2023-03-11T02:34:33;36.13;;;19.70;;
78027;SDS011;67235;45.638;11.714;2023-03-11T02:37:05;32.83;;;19.92;;
78027;SDS011;67235;45.638;11.714;2023-03-11T02:39:37;33.13;;;20.10;;
78027;SDS011;67235;45.638;11.714;2023-03-11T02:42:11;30.08;;;18.83;;
78027;SDS011;67235;45.638;11.714;2023-03-11T02:44:59;26.53;;;15.80;;
78027;SDS011;67235;45.638;11.714;2023-03-11T02:47:28;41.60;;;23.67;;
78027;SDS011;67235;45.638;11.714;2023-03-11T02:49:55;32.97;;;20.90;;
78027;SDS011;67235;45.638;11.714;2023-03-11T02:52:21;34.42;;;20.98;;
78027;SDS011;67235;45.638;11.714;2023-03-11T02:54:49;33.00;;;19.85;;
78027;SDS011;67235;45.638;11.714;2023-03-11T02:57:15;29.47;;;17.47;;
78027;SDS011;67235;45.638;11.714;2023-03-11T02:59:41;32.85;;;18.15;;
78027;SDS011;67235;45.638;11.714;2023-03-11T03:02:07;36.35;;;20.10;;
78027;SDS011;67235;45.638;11.714;2023-03-11T03:04:32;32.65;;;19.52;;
78027;SDS011;67235;45.638;11.714;2023-03-11T03:06:58;31.67;;;18.95;;
78027;SDS011;67235;45.638;11.714;2023-03-11T03:09:24;33.63;;;21.27;;
78027;SDS011;67235;45.638;11.714;2023-03-11T03:11:50;35.35;;;20.90;;
78027;SDS011;67235;45.638;11.714;2023-03-11T03:14:16;38.38;;;22.15;;
78027;SDS011;67235;45.638;11.714;2023-03-11T03:16:42;28.97;;;17.80;;
78027;SDS011;67235;45.638;11.714;2023-03-11T03:19:08;26.33;;;17.67;;
78027;SDS011;67235;45.638;11.714;2023-03-11T03:21:33;27.80;;;17.85;;
78027;SDS011;67235;45.638;11.714;2023-03-11T03:23:59;29.67;;;17.52;;
78027;SDS011;67235;45.638;11.714;2023-03-11T03:26:25;26.83;;;17.00;;
78027;SDS011;67235;45.638;11.714;2023-03-11T03:28:51;26.83;;;18.50;;
78027;SDS011;67235;45.638;11.714;2023-03-11T03:31:17;31.20;;;18.50;;
78027;SDS011;67235;45.638;11.714;2023-03-11T03:33:43;35.67;;;20.65;;
78027;SDS011;67235;45.638;11.714;2023-03-11T03:36:10;35.77;;;19.33;;
78027;SDS011;67235;45.638;11.714;2023-03-11T03:38:38;31.38;;;19.38;;
78027;SDS011;67235;45.638;11.714;2023-03-11T03:41:04;31.38;;;18.90;;
78027;SDS011;67235;45.638;11.714;2023-03-11T03:43:29;34.72;;;20.85;;
78027;SDS011;67235;45.638;11.714;2023-03-11T03:45:56;36.73;;;21.73;;
78027;SDS011;67235;45.638;11.714;2023-03-11T03:48:24;23.52;;;15.55;;
78027;SDS011;67235;45.638;11.714;2023-03-11T03:50:51;26.83;;;15.82;;
78027;SDS011;67235;45.638;11.714;2023-03-11T03:53:17;24.30;;;16.38;;
78027;SDS011;67235;45.638;11.714;2023-03-11T03:55:43;45.33;;;24.50;;
78027;SDS011;67235;45.638;11.714;2023-03-11T03:58:09;43.67;;;23.83;;
78027;SDS011;67235;45.638;11.714;2023-03-11T04:00:34;38.92;;;22.90;;
78027;SDS011;67235;45.638;11.714;2023-03-11T04:03:00;26.80;;;18.25;;
78027;SDS011;67235;45.638;11.714;2023-03-11T04:05:26;29.37;;;17.57;;
78027;SDS011;67235;45.638;11.714;2023-03-11T04:07:53;25.92;;;16.55;;
78027;SDS011;67235;45.638;11.714;2023-03-11T04:10:19;29.70;;;16.60;;
78027;SDS011;67235;45.638;11.714;2023-03-11T04:12:45;25.03;;;16.50;;
78027;SDS011;67235;45.638;11.714;2023-03-11T04:15:11;27.85;;;17.27;;
78027;SDS011;67235;45.638;11.714;2023-03-11T04:17:37;23.30;;;16.13;;
78027;SDS011;67235;45.638;11.714;2023-03-11T04:20:03;27.43;;;17.73;;
78027;SDS011;67235;45.638;11.714;2023-03-11T04:22:34;32.28;;;18.17;;
78027;SDS011;67235;45.638;11.714;2023-03-11T04:25:00;32.72;;;19.40;;
78027;SDS011;67235;45.638;11.714;2023-03-11T04:27:27;26.48;;;16.00;;
78027;SDS011;67235;45.638;11.714;2023-03-11T04:29:53;26.00;;;15.80;;
78027;SDS011;67235;45.638;11.714;2023-03-11T04:32:18;30.25;;;17.55;;
78027;SDS011;67235;45.638;11.714;2023-03-11T04:34:46;28.75;;;17.23;;
78027;SDS011;67235;45.638;11.714;2023-03-11T04:37:12;26.92;;;16.77;;
78027;SDS011;67235;45.638;11.714;2023-03-11T04:39:38;28.40;;;17.87;;
78027;SDS011;67235;45.638;11.714;2023-03-11T04:42:04;35.15;;;19.48;;
78027;SDS011;67235;45.638;11.714;2023-03-11T04:44:30;31.67;;;19.48;;
78027;SDS011;67235;45.638;11.714;2023-03-11T04:46:56;30.47;;;20.30;;
78027;SDS011;67235;45.638;11.714;2023-03-11T04:49:21;32.30;;;19.45;;
78027;SDS011;67235;45.638;11.714;2023-03-11T04:51:47;28.23;;;18.27;;
78027;SDS011;67235;45.638;11.714;2023-03-11T04:54:13;29.75;;;17.77;;
78027;SDS011;67235;45.638;11.714;2023-03-11T04:56:39;29.77;;;18.35;;
78027;SDS011;67235;45.638;11.714;2023-03-11T04:59:05;32.40;;;20.17;;
78027;SDS011;67235;45.638;11.714;2023-03-11T05:01:31;37.47;;;21.55;;
78027;SDS011;67235;45.638;11.714;2023-03-11T05:03:56;35.28;;;20.85;;
78027;SDS011;67235;45.638;11.714;2023-03-11T05:06:22;32.05;;;19.58;;
78027;SDS011;67235;45.638;11.714;2023-03-11T05:08:48;29.67;;;17.70;;
78027;SDS011;67235;45.638;11.714;2023-03-11T05:11:14;28.57;;;17.87;;
78027;SDS011;67235;45.638;11.714;2023-03-11T05:13:40;29.42;;;18.13;;
78027;SDS011;67235;45.638;11.714;2023-03-11T05:16:06;27.92;;;17.50;;
78027;SDS011;67235;45.638;11.714;2023-03-11T05:18:32;32.88;;;19.38;;
78027;SDS011;67235;45.638;11.714;2023-03-11T05:20:57;35.55;;;20.98;;
78027;SDS011;67235;45.638;11.714;2023-03-11T05:23:23;36.00;;;20.07;;
78027;SDS011;67235;45.638;11.714;2023-03-11T05:25:49;34.85;;;20.20;;
78027;SDS011;67235;45.638;11.714;2023-03-11T05:28:15;35.63;;;21.45;;
78027;SDS011;67235;45.638;11.714;2023-03-11T05:30:41;37.67;;;21.37;;
78027;SDS011;67235;45.638;11.714;2023-03-11T05:33:07;42.05;;;24.23;;
78027;SDS011;67235;45.638;11.714;2023-03-11T05:35:32;45.00;;;25.83;;
78027;SDS011;67235;45.638;11.714;2023-03-11T05:37:58;42.70;;;25.33;;
78027;SDS011;67235;45.638;11.714;2023-03-11T05:40:24;35.47;;;20.67;;
78027;SDS011;67235;45.638;11.714;2023-03-11T05:42:50;29.00;;;19.47;;
78027;SDS011;67235;45.638;11.714;2023-03-11T05:45:16;31.48;;;19.10;;
78027;SDS011;67235;45.638;11.714;2023-03-11T05:47:42;34.42;;;19.92;;
78027;SDS011;67235;45.638;11.714;2023-03-11T05:50:08;34.27;;;19.20;;
78027;SDS011;67235;45.638;11.714;2023-03-11T05:52:35;32.60;;;18.60;;
78027;SDS011;67235;45.638;11.714;2023-03-11T05:55:01;31.38;;;18.52;;
78027;SDS011;67235;45.638;11.714;2023-03-11T05:57:27;31.80;;;19.17;;
78027;SDS011;67235;45.638;11.714;2023-03-11T05:59:53;31.33;;;19.13;;
78027;SDS011;67235;45.638;11.714;2023-03-11T06:02:19;29.95;;;17.85;;
78027;SDS011;67235;45.638;11.714;2023-03-11T06:04:45;28.10;;;17.67;;
78027;SDS011;67235;45.638;11.714;2023-03-11T06:07:12;27.55;;;17.33;;
78027;SDS011;67235;45.638;11.714;2023-03-11T06:09:39;32.13;;;16.98;;
78027;SDS011;67235;45.638;11.714;2023-03-11T06:12:05;24.98;;;15.82;;
78027;SDS011;67235;45.638;11.714;2023-03-11T06:14:32;27.77;;;17.10;;
78027;SDS011;67235;45.638;11.714;2023-03-11T06:16:58;28.42;;;17.88;;
78027;SDS011;67235;45.638;11.714;2023-03-11T06:19:24;28.52;;;18.05;;
78027;SDS011;67235;45.638;11.714;2023-03-11T06:21:50;32.80;;;21.35;;
78027;SDS011;67235;45.638;11.714;2023-03-11T06:24:17;35.30;;;19.37;;
78027;SDS011;67235;45.638;11.714;2023-03-11T06:26:43;30.13;;;18.85;;
78027;SDS011;67235;45.638;11.714;2023-03-11T06:29:12;29.30;;;17.30;;
78027;SDS011;67235;45.638;11.714;2023-03-11T06:31:39;30.85;;;18.30;;
78027;SDS011;67235;45.638;11.714;2023-03-11T06:34:05;31.42;;;17.77;;
78027;SDS011;67235;45.638;11.714;2023-03-11T06:36:31;26.73;;;16.70;;
78027;SDS011;67235;45.638;11.714;2023-03-11T06:38:57;27.58;;;17.35;;
78027;SDS011;67235;45.638;11.714;2023-03-11T06:41:23;26.33;;;17.80;;
78027;SDS011;67235;45.638;11.714;2023-03-11T06:43:49;26.63;;;17.07;;
78027;SDS011;67235;45.638;11.714;2023-03-11T06:46:16;28.95;;;17.63;;
78027;SDS011;67235;45.638;11.714;2023-03-11T06:48:44;28.08;;;17.27;;
78027;SDS011;67235;45.638;11.714;2023-03-11T06:51:11;26.55;;;16.70;;
78027;SDS011;67235;45.638;11.714;2023-03-11T06:53:38;30.65;;;18.45;;
78027;SDS011;67235;45.638;11.714;2023-03-11T06:58:31;27.30;;;17.23;;
78027;SDS011;67235;45.638;11.714;2023-03-11T07:03:37;31.33;;;18.65;;
78027;SDS011;67235;45.638;11.714;2023-03-11T07:06:04;31.88;;;17.95;;
78027;SDS011;67235;45.638;11.714;2023-03-11T07:08:32;25.27;;;16.90;;
78027;SDS011;67235;45.638;11.714;2023-03-11T07:11:08;26.90;;;16.55;;
78027;SDS011;67235;45.638;11.714;2023-03-11T07:13:37;28.92;;;17.40;;
78027;SDS011;67235;45.638;11.714;2023-03-11T07:16:06;30.88;;;19.00;;
78027;SDS011;67235;45.638;11.714;2023-03-11T07:18:43;31.63;;;18.75;;
78027;SDS011;67235;45.638;11.714;2023-03-11T07:21:11;31.77;;;18.30;;
78027;SDS011;67235;45.638;11.714;2023-03-11T07:23:40;27.52;;;18.65;;
78027;SDS011;67235;45.638;11.714;2023-03-11T07:26:17;33.78;;;18.90;;
78027;SDS011;67235;45.638;11.714;2023-03-11T07:28:43;26.92;;;18.67;;
78027;SDS011;67235;45.638;11.714;2023-03-11T07:31:11;27.27;;;17.77;;
78027;SDS011;67235;45.638;11.714;2023-03-11T07:33:40;27.60;;;17.33;;
78027;SDS011;67235;45.638;11.714;2023-03-11T07:36:07;27.50;;;17.63;;
78027;SDS011;67235;45.638;11.714;2023-03-11T07:38:34;23.52;;;17.52;;
78027;SDS011;67235;45.638;11.714;2023-03-11T07:41:01;25.20;;;17.50;;
78027;SDS011;67235;45.638;11.714;2023-03-11T07:43:29;26.58;;;17.52;;
78027;SDS011;67235;45.638;11.714;2023-03-11T07:46:09;23.80;;;16.63;;
78027;SDS011;67235;45.638;11.714;2023-03-11T07:48:42;23.10;;;16.00;;
78027;SDS011;67235;45.638;11.714;2023-03-11T07:51:11;21.13;;;14.40;;
78027;SDS011;67235;45.638;11.714;2023-03-11T07:53:42;22.48;;;16.23;;
78027;SDS011;67235;45.638;11.714;2023-03-11T07:56:09;21.00;;;14.93;;
78027;SDS011;67235;45.638;11.714;2023-03-11T07:58:36;20.90;;;15.40;;
78027;SDS011;67235;45.638;11.714;2023-03-11T08:01:03;22.80;;;15.65;;
78027;SDS011;67235;45.638;11.714;2023-03-11T08:03:31;24.15;;;15.52;;
78027;SDS011;67235;45.638;11.714;2023-03-11T08:05:57;22.20;;;15.05;;
78027;SDS011;67235;45.638;11.714;2023-03-11T08:08:23;24.37;;;16.03;;
78027;SDS011;67235;45.638;11.714;2023-03-11T08:10:49;23.38;;;15.93;;
78027;SDS011;67235;45.638;11.714;2023-03-11T08:13:15;25.48;;;16.05;;
78027;SDS011;67235;45.638;11.714;2023-03-11T08:15:41;26.05;;;15.57;;
78027;SDS011;67235;45.638;11.714;2023-03-11T08:18:07;24.63;;;15.55;;
78027;SDS011;67235;45.638;11.714;2023-03-11T08:20:36;25.65;;;15.20;;
78027;SDS011;67235;45.638;11.714;2023-03-11T08:23:02;25.90;;;16.15;;
78027;SDS011;67235;45.638;11.714;2023-03-11T08:25:28;24.52;;;15.32;;
78027;SDS011;67235;45.638;11.714;2023-03-11T08:27:54;28.30;;;15.98;;
78027;SDS011;67235;45.638;11.714;2023-03-11T08:30:20;27.00;;;16.17;;
78027;SDS011;67235;45.638;11.714;2023-03-11T08:32:48;22.40;;;14.50;;
78027;SDS011;67235;45.638;11.714;2023-03-11T08:35:15;27.20;;;15.27;;
78027;SDS011;67235;45.638;11.714;2023-03-11T08:37:41;25.10;;;15.15;;
78027;SDS011;67235;45.638;11.714;2023-03-11T08:40:08;25.13;;;14.13;;
78027;SDS011;67235;45.638;11.714;2023-03-11T08:42:35;24.05;;;15.27;;
78027;SDS011;67235;45.638;11.714;2023-03-11T08:45:01;30.58;;;16.13;;
78027;SDS011;67235;45.638;11.714;2023-03-11T08:47:27;23.83;;;15.43;;
78027;SDS011;67235;45.638;11.714;2023-03-11T08:49:57;24.55;;;14.45;;
78027;SDS011;67235;45.638;11.714;2023-03-11T08:52:23;23.58;;;13.93;;
78027;SDS011;67235;45.638;11.714;2023-03-11T08:54:55;22.17;;;13.00;;
78027;SDS011;67235;45.638;11.714;2023-03-11T09:00:40;17.40;;;11.20;;
78027;SDS011;67235;45.638;11.714;2023-03-11T09:03:15;17.75;;;10.95;;
78027;SDS011;67235;45.638;11.714;2023-03-11T09:06:08;17.23;;;12.23;;
78027;SDS011;67235;45.638;11.714;2023-03-11T09:09:06;20.33;;;11.27;;
78027;SDS011;67235;45.638;11.714;2023-03-11T09:15:07;17.15;;;11.23;;
78027;SDS011;67235;45.638;11.714;2023-03-11T09:17:47;16.67;;;9.82;;
78027;SDS011;67235;45.638;11.714;2023-03-11T09:20:13;15.97;;;10.23;;
78027;SDS011;67235;45.638;11.714;2023-03-11T09:23:06;17.00;;;10.60;;
78027;SDS011;67235;45.638;11.714;2023-03-11T09:25:41;15.68;;;10.70;;
78027;SDS011;67235;45.638;11.714;2023-03-11T09:28:10;16.45;;;10.75;;
78027;SDS011;67235;45.638;11.714;2023-03-11T09:30:39;20.60;;;11.63;;
78027;SDS011;67235;45.638;11.714;2023-03-11T09:36:22;15.48;;;9.88;;
78027;SDS011;67235;45.638;11.714;2023-03-11T09:38:51;16.90;;;10.55;;
78027;SDS011;67235;45.638;11.714;2023-03-11T09:55:47;18.52;;;11.80;;
78027;SDS011;67235;45.638;11.714;2023-03-11T10:00:40;17.23;;;11.70;;
78027;SDS011;67235;45.638;11.714;2023-03-11T10:03:16;17.48;;;11.57;;
78027;SDS011;67235;45.638;11.714;2023-03-11T10:06:02;18.08;;;12.30;;
78027;SDS011;67235;45.638;11.714;2023-03-11T10:08:39;17.08;;;11.50;;
78027;SDS011;67235;45.638;11.714;2023-03-11T10:11:57;17.65;;;11.80;;
78027;SDS011;67235;45.638;11.714;2023-03-11T10:20:27;20.95;;;12.00;;
78027;SDS011;67235;45.638;11.714;2023-03-11T10:23:09;20.08;;;11.20;;
78027;SDS011;67235;45.638;11.714;2023-03-11T10:28:34;20.23;;;11.57;;
78027;SDS011;67235;45.638;11.714;2023-03-11T10:36:38;17.63;;;10.82;;
78027;SDS011;67235;45.638;11.714;2023-03-11T10:39:32;20.95;;;10.23;;
78027;SDS011;67235;45.638;11.714;2023-03-11T10:42:02;18.00;;;11.15;;
78027;SDS011;67235;45.638;11.714;2023-03-11T10:44:31;22.17;;;10.18;;
78027;SDS011;67235;45.638;11.714;2023-03-11T10:47:01;20.20;;;10.02;;
78027;SDS011;67235;45.638;11.714;2023-03-11T10:49:28;20.08;;;9.73;;
78027;SDS011;67235;45.638;11.714;2023-03-11T10:51:54;21.60;;;9.68;;
78027;SDS011;67235;45.638;11.714;2023-03-11T10:54:30;18.58;;;9.20;;
78027;SDS011;67235;45.638;11.714;2023-03-11T10:57:25;19.85;;;9.20;;
78027;SDS011;67235;45.638;11.714;2023-03-11T10:59:52;19.73;;;9.82;;
78027;SDS011;67235;45.638;11.714;2023-03-11T11:02:40;17.98;;;9.40;;
78027;SDS011;67235;45.638;11.714;2023-03-11T11:08:23;18.48;;;8.90;;
78027;SDS011;67235;45.638;11.714;2023-03-11T11:11:20;44.28;;;10.30;;
78027;SDS011;67235;45.638;11.714;2023-03-11T11:13:57;20.45;;;9.48;;
78027;SDS011;67235;45.638;11.714;2023-03-11T11:16:24;17.92;;;9.27;;
78027;SDS011;67235;45.638;11.714;2023-03-11T11:18:53;18.20;;;8.65;;
78027;SDS011;67235;45.638;11.714;2023-03-11T11:26:33;17.75;;;9.65;;
78027;SDS011;67235;45.638;11.714;2023-03-11T11:29:17;19.27;;;10.45;;
78027;SDS011;67235;45.638;11.714;2023-03-11T11:31:46;21.33;;;10.40;;
78027;SDS011;67235;45.638;11.714;2023-03-11T11:34:31;21.10;;;10.05;;
78027;SDS011;67235;45.638;11.714;2023-03-11T11:36:59;18.48;;;10.13;;
78027;SDS011;67235;45.638;11.714;2023-03-11T11:39:29;19.75;;;9.93;;
78027;SDS011;67235;45.638;11.714;2023-03-11T11:42:15;24.20;;;11.15;;
78027;SDS011;67235;45.638;11.714;2023-03-11T11:44:45;19.92;;;11.63;;
78027;SDS011;67235;45.638;11.714;2023-03-11T11:47:16;19.55;;;10.80;;
78027;SDS011;67235;45.638;11.714;2023-03-11T11:49:51;23.63;;;10.77;;
78027;SDS011;67235;45.638;11.714;2023-03-11T11:52:25;21.15;;;10.80;;
78027;SDS011;67235;45.638;11.714;2023-03-11T11:57:51;18.85;;;11.02;;
78027;SDS011;67235;45.638;11.714;2023-03-11T12:00:18;20.15;;;10.57;;
78027;SDS011;67235;45.638;11.714;2023-03-11T12:05:51;19.27;;;10.50;;
78027;SDS011;67235;45.638;11.714;2023-03-11T12:12:03;18.35;;;10.35;;
78027;SDS011;67235;45.638;11.714;2023-03-11T12:14:46;19.75;;;9.55;;
78027;SDS011;67235;45.638;11.714;2023-03-11T12:17:31;21.60;;;10.25;;
78027;SDS011;67235;45.638;11.714;2023-03-11T12:20:25;19.65;;;10.27;;
78027;SDS011;67235;45.638;11.714;2023-03-11T12:31:06;19.17;;;9.48;;
78027;SDS011;67235;45.638;11.714;2023-03-11T12:36:19;22.58;;;10.38;;
78027;SDS011;67235;45.638;11.714;2023-03-11T12:38:49;18.52;;;9.82;;
78027;SDS011;67235;45.638;11.714;2023-03-11T12:41:26;16.00;;;9.95;;
78027;SDS011;67235;45.638;11.714;2023-03-11T12:43:58;18.58;;;9.35;;
78027;SDS011;67235;45.638;11.714;2023-03-11T12:49:24;27.35;;;12.07;;
78027;SDS011;67235;45.638;11.714;2023-03-11T12:52:01;23.33;;;12.63;;
78027;SDS011;67235;45.638;11.714;2023-03-11T12:55:22;21.77;;;12.13;;
78027;SDS011;67235;45.638;11.714;2023-03-11T12:57:49;25.00;;;12.40;;
78027;SDS011;67235;45.638;11.714;2023-03-11T13:05:31;21.27;;;11.80;;
78027;SDS011;67235;45.638;11.714;2023-03-11T13:08:49;21.40;;;11.35;;
78027;SDS011;67235;45.638;11.714;2023-03-11T13:11:26;21.08;;;11.07;;
78027;SDS011;67235;45.638;11.714;2023-03-11T13:13:53;20.27;;;12.88;;
78027;SDS011;67235;45.638;11.714;2023-03-11T13:16:39;24.33;;;13.60;;
78027;SDS011;67235;45.638;11.714;2023-03-11T13:21:50;25.92;;;14.77;;
78027;SDS011;67235;45.638;11.714;2023-03-11T13:29:29;24.30;;;13.47;;
78027;SDS011;67235;45.638;11.714;2023-03-11T13:32:22;24.58;;;13.85;;
78027;SDS011;67235;45.638;11.714;2023-03-11T13:40:41;24.67;;;14.68;;
78027;SDS011;67235;45.638;11.714;2023-03-11T13:43:16;26.07;;;14.23;;
78027;SDS011;67235;45.638;11.714;2023-03-11T13:46:02;28.00;;;14.70;;
78027;SDS011;67235;45.638;11.714;2023-03-11T13:48:39;26.55;;;16.10;;
78027;SDS011;67235;45.638;11.714;2023-03-11T13:51:14;26.98;;;15.00;;
78027;SDS011;67235;45.638;11.714;2023-03-11T13:54:03;27.23;;;14.63;;
78027;SDS011;67235;45.638;11.714;2023-03-11T13:56:42;27.17;;;14.83;;
78027;SDS011;67235;45.638;11.714;2023-03-11T13:59:16;29.80;;;15.95;;
78027;SDS011;67235;45.638;11.714;2023-03-11T14:04:33;31.55;;;16.73;;
78027;SDS011;67235;45.638;11.714;2023-03-11T14:07:18;28.08;;;16.00;;
78027;SDS011;67235;45.638;11.714;2023-03-11T14:09:49;32.13;;;16.33;;
78027;SDS011;67235;45.638;11.714;2023-03-11T14:12:15;27.73;;;16.25;;
78027;SDS011;67235;45.638;11.714;2023-03-11T14:17:15;27.88;;;15.48;;
78027;SDS011;67235;45.638;11.714;2023-03-11T14:19:42;33.10;;;16.42;;
78027;SDS011;67235;45.638;11.714;2023-03-11T14:22:08;29.17;;;16.05;;
78027;SDS011;67235;45.638;11.714;2023-03-11T14:24:34;33.97;;;17.13;;
78027;SDS011;67235;45.638;11.714;2023-03-11T14:27:02;31.80;;;16.90;;
78027;SDS011;67235;45.638;11.714;2023-03-11T14:29:37;31.02;;;16.95;;
78027;SDS011;67235;45.638;11.714;2023-03-11T14:34:48;31.13;;;15.60;;
78027;SDS011;67235;45.638;11.714;2023-03-11T14:37:36;27.98;;;14.25;;
78027;SDS011;67235;45.638;11.714;2023-03-11T14:40:01;27.13;;;14.65;;
78027;SDS011;67235;45.638;11.714;2023-03-11T14:42:33;23.13;;;13.68;;
78027;SDS011;67235;45.638;11.714;2023-03-11T14:45:05;31.45;;;15.23;;
78027;SDS011;67235;45.638;11.714;2023-03-11T14:47:47;28.30;;;15.43;;
78027;SDS011;67235;45.638;11.714;2023-03-11T14:50:23;31.38;;;18.27;;
78027;SDS011;67235;45.638;11.714;2023-03-11T14:53:03;32.70;;;18.20;;
78027;SDS011;67235;45.638;11.714;2023-03-11T14:55:42;31.98;;;18.55;;
78027;SDS011;67235;45.638;11.714;2023-03-11T14:58:22;34.47;;;17.48;;
78027;SDS011;67235;45.638;11.714;2023-03-11T15:03:28;28.95;;;16.50;;
78027;SDS011;67235;45.638;11.714;2023-03-11T15:06:05;30.38;;;17.00;;
78027;SDS011;67235;45.638;11.714;2023-03-11T15:08:45;29.80;;;16.55;;
78027;SDS011;67235;45.638;11.714;2023-03-11T15:13:41;33.22;;;17.58;;
78027;SDS011;67235;45.638;11.714;2023-03-11T15:18:58;33.90;;;17.58;;
78027;SDS011;67235;45.638;11.714;2023-03-11T15:21:46;36.53;;;18.10;;
78027;SDS011;67235;45.638;11.714;2023-03-11T15:24:20;32.25;;;17.92;;
78027;SDS011;67235;45.638;11.714;2023-03-11T15:26:54;34.33;;;18.30;;
78027;SDS011;67235;45.638;11.714;2023-03-11T15:29:22;32.55;;;17.58;;
78027;SDS011;67235;45.638;11.714;2023-03-11T15:31:50;33.28;;;17.27;;
78027;SDS011;67235;45.638;11.714;2023-03-11T15:41:42;33.30;;;18.02;;
78027;SDS011;67235;45.638;11.714;2023-03-11T15:44:23;31.63;;;16.73;;
78027;SDS011;67235;45.638;11.714;2023-03-11T15:46:52;29.45;;;15.13;;
78027;SDS011;67235;45.638;11.714;2023-03-11T15:49:18;31.17;;;16.08;;
78027;SDS011;67235;45.638;11.714;2023-03-11T15:51:44;27.48;;;14.70;;
78027;SDS011;67235;45.638;11.714;2023-03-11T15:54:10;24.83;;;13.20;;
78027;SDS011;67235;45.638;11.714;2023-03-11T15:56:36;27.42;;;13.50;;
78027;SDS011;67235;45.638;11.714;2023-03-11T15:59:03;28.23;;;14.13;;
78027;SDS011;67235;45.638;11.714;2023-03-11T16:01:28;26.90;;;13.33;;
78027;SDS011;67235;45.638;11.714;2023-03-11T16:03:54;26.00;;;12.82;;
78027;SDS011;67235;45.638;11.714;2023-03-11T16:06:20;23.30;;;12.88;;
78027;SDS011;67235;45.638;11.714;2023-03-11T16:08:47;26.48;;;12.85;;
78027;SDS011;67235;45.638;11.714;2023-03-11T16:11:13;26.33;;;13.15;;
78027;SDS011;67235;45.638;11.714;2023-03-11T16:13:39;26.55;;;13.13;;
78027;SDS011;67235;45.638;11.714;2023-03-11T16:16:07;24.02;;;13.70;;
78027;SDS011;67235;45.638;11.714;2023-03-11T16:18:41;28.67;;;14.10;;
78027;SDS011;67235;45.638;11.714;2023-03-11T16:21:09;26.35;;;13.90;;
78027;SDS011;67235;45.638;11.714;2023-03-11T16:23:41;27.48;;;13.98;;
78027;SDS011;67235;45.638;11.714;2023-03-11T16:26:08;26.35;;;14.30;;
78027;SDS011;67235;45.638;11.714;2023-03-11T16:28:35;26.25;;;13.18;;
78027;SDS011;67235;45.638;11.714;2023-03-11T16:31:01;26.80;;;13.50;;